sensor_id;sensor_type;location;lat;lon;timestamp;P1;durP1;ratioP1;P2;durP2;ratioP2
45970;SDS011;31681;48.982;8.394;2023-06-26T00:01:10;12.98;;;7.63;;
45970;SDS011;31681;48.982;8.394;2023-06-26T00:03:36;11.15;;;6.57;;
45970;SDS011;31681;48.982;8.394;2023-06-26T00:06:01;10.10;;;6.57;;
45970;SDS011;31681;48.982;8.394;2023-06-26T00:08:27;9.43;;;6.38;;
45970;SDS011;31681;48.982;8.394;2023-06-26T00:10:52;11.38;;;7.22;;
45970;SDS011;31681;48.982;8.394;2023-06-26T00:13:18;9.30;;;6.47;;
45970;SDS011;31681;48.982;8.394;2023-06-26T00:15:44;9.50;;;6.82;;
45970;SDS011;31681;48.982;8.394;2023-06-26T00:18:09;8.65;;;6.95;;
45970;SDS011;31681;48.982;8.394;2023-06-26T00:20:34;13.95;;;6.93;;
45970;SDS011;31681;48.982;8.394;2023-06-26T00:23:00;11.57;;;6.93;;
45970;SDS011;31681;48.982;8.394;2023-06-26T00:25:25;10.98;;;7.35;;
45970;SDS011;31681;48.982;8.394;2023-06-26T00:27:50;10.38;;;6.75;;
45970;SDS011;31681;48.982;8.394;2023-06-26T00:30:16;11.48;;;6.97;;
45970;SDS011;31681;48.982;8.394;2023-06-26T00:32:41;10.18;;;7.00;;
45970;SDS011;31681;48.982;8.394;2023-06-26T00:35:06;9.07;;;6.97;;
45970;SDS011;31681;48.982;8.394;2023-06-26T00:37:32;10.80;;;7.15;;
45970;SDS011;31681;48.982;8.394;2023-06-26T00:39:57;10.43;;;7.40;;
45970;SDS011;31681;48.982;8.394;2023-06-26T00:42:23;11.43;;;7.18;;
45970;SDS011;31681;48.982;8.394;2023-06-26T00:44:48;8.95;;;6.57;;
45970;SDS011;31681;48.982;8.394;2023-06-26T00:47:14;8.85;;;6.85;;
45970;SDS011;31681;48.982;8.394;2023-06-26T00:49:39;9.23;;;6.78;;
45970;SDS011;31681;48.982;8.394;2023-06-26T00:52:05;9.63;;;7.43;;
45970;SDS011;31681;48.982;8.394;2023-06-26T00:54:32;8.90;;;7.03;;
45970;SDS011;31681;48.982;8.394;2023-06-26T00:56:57;9.35;;;6.80;;
45970;SDS011;31681;48.982;8.394;2023-06-26T00:59:23;9.65;;;6.28;;
45970;SDS011;31681;48.982;8.394;2023-06-26T01:01:48;9.20;;;6.88;;
45970;SDS011;31681;48.982;8.394;2023-06-26T01:04:13;8.02;;;6.20;;
45970;SDS011;31681;48.982;8.394;2023-06-26T01:06:48;9.50;;;6.60;;
45970;SDS011;31681;48.982;8.394;2023-06-26T01:09:18;10.57;;;7.20;;
45970;SDS011;31681;48.982;8.394;2023-06-26T01:11:44;9.93;;;7.07;;
45970;SDS011;31681;48.982;8.394;2023-06-26T01:14:10;10.73;;;7.68;;
45970;SDS011;31681;48.982;8.394;2023-06-26T01:16:36;10.20;;;7.30;;
45970;SDS011;31681;48.982;8.394;2023-06-26T01:19:06;8.80;;;6.78;;
45970;SDS011;31681;48.982;8.394;2023-06-26T01:21:35;10.57;;;7.18;;
45970;SDS011;31681;48.982;8.394;2023-06-26T01:26:29;10.55;;;7.07;;
45970;SDS011;31681;48.982;8.394;2023-06-26T01:28:56;9.13;;;7.47;;
45970;SDS011;31681;48.982;8.394;2023-06-26T01:31:24;11.25;;;7.30;;
45970;SDS011;31681;48.982;8.394;2023-06-26T01:33:50;10.20;;;7.88;;
45970;SDS011;31681;48.982;8.394;2023-06-26T01:36:18;10.32;;;7.30;;
45970;SDS011;31681;48.982;8.394;2023-06-26T01:38:44;8.88;;;6.82;;
45970;SDS011;31681;48.982;8.394;2023-06-26T01:41:09;7.85;;;6.30;;
45970;SDS011;31681;48.982;8.394;2023-06-26T01:46:16;10.85;;;7.03;;
45970;SDS011;31681;48.982;8.394;2023-06-26T01:48:46;9.07;;;7.50;;
45970;SDS011;31681;48.982;8.394;2023-06-26T01:51:12;9.70;;;6.90;;
45970;SDS011;31681;48.982;8.394;2023-06-26T01:53:41;9.93;;;7.50;;
45970;SDS011;31681;48.982;8.394;2023-06-26T01:56:08;10.60;;;7.88;;
45970;SDS011;31681;48.982;8.394;2023-06-26T01:58:37;10.57;;;7.15;;
45970;SDS011;31681;48.982;8.394;2023-06-26T02:01:04;12.32;;;8.02;;
45970;SDS011;31681;48.982;8.394;2023-06-26T02:03:31;9.80;;;7.20;;
45970;SDS011;31681;48.982;8.394;2023-06-26T02:05:59;9.68;;;7.15;;
45970;SDS011;31681;48.982;8.394;2023-06-26T02:08:26;9.88;;;7.10;;
45970;SDS011;31681;48.982;8.394;2023-06-26T02:10:55;12.70;;;7.40;;
45970;SDS011;31681;48.982;8.394;2023-06-26T02:13:20;11.27;;;6.97;;
45970;SDS011;31681;48.982;8.394;2023-06-26T02:15:46;8.77;;;7.00;;
45970;SDS011;31681;48.982;8.394;2023-06-26T02:18:11;10.93;;;7.45;;
45970;SDS011;31681;48.982;8.394;2023-06-26T02:20:36;9.35;;;6.70;;
45970;SDS011;31681;48.982;8.394;2023-06-26T02:23:02;10.75;;;7.03;;
45970;SDS011;31681;48.982;8.394;2023-06-26T02:25:27;7.97;;;6.38;;
45970;SDS011;31681;48.982;8.394;2023-06-26T02:27:52;9.30;;;7.63;;
45970;SDS011;31681;48.982;8.394;2023-06-26T02:30:18;9.45;;;6.88;;
45970;SDS011;31681;48.982;8.394;2023-06-26T02:32:44;9.23;;;6.95;;
45970;SDS011;31681;48.982;8.394;2023-06-26T02:35:10;10.02;;;7.47;;
45970;SDS011;31681;48.982;8.394;2023-06-26T02:37:40;9.80;;;7.68;;
45970;SDS011;31681;48.982;8.394;2023-06-26T02:40:06;10.07;;;7.18;;
45970;SDS011;31681;48.982;8.394;2023-06-26T02:42:33;10.68;;;7.55;;
45970;SDS011;31681;48.982;8.394;2023-06-26T02:44:58;11.27;;;7.50;;
45970;SDS011;31681;48.982;8.394;2023-06-26T02:47:23;8.55;;;6.65;;
45970;SDS011;31681;48.982;8.394;2023-06-26T02:49:49;9.43;;;7.05;;
45970;SDS011;31681;48.982;8.394;2023-06-26T02:52:14;10.05;;;6.60;;
45970;SDS011;31681;48.982;8.394;2023-06-26T02:54:40;9.93;;;7.10;;
45970;SDS011;31681;48.982;8.394;2023-06-26T02:57:05;11.48;;;7.43;;
45970;SDS011;31681;48.982;8.394;2023-06-26T02:59:32;8.60;;;7.00;;
45970;SDS011;31681;48.982;8.394;2023-06-26T03:01:57;9.43;;;6.55;;
45970;SDS011;31681;48.982;8.394;2023-06-26T03:04:29;9.25;;;7.05;;
45970;SDS011;31681;48.982;8.394;2023-06-26T03:06:55;8.68;;;6.50;;
45970;SDS011;31681;48.982;8.394;2023-06-26T03:09:20;13.48;;;8.40;;
45970;SDS011;31681;48.982;8.394;2023-06-26T03:11:45;10.15;;;6.95;;
45970;SDS011;31681;48.982;8.394;2023-06-26T03:14:11;10.98;;;7.47;;
45970;SDS011;31681;48.982;8.394;2023-06-26T03:16:37;10.88;;;7.85;;
45970;SDS011;31681;48.982;8.394;2023-06-26T03:19:02;11.15;;;6.95;;
45970;SDS011;31681;48.982;8.394;2023-06-26T03:21:29;8.52;;;6.40;;
45970;SDS011;31681;48.982;8.394;2023-06-26T03:23:55;9.38;;;6.72;;
45970;SDS011;31681;48.982;8.394;2023-06-26T03:26:21;11.48;;;6.97;;
45970;SDS011;31681;48.982;8.394;2023-06-26T03:28:52;11.13;;;7.28;;
45970;SDS011;31681;48.982;8.394;2023-06-26T03:31:18;12.90;;;7.55;;
45970;SDS011;31681;48.982;8.394;2023-06-26T03:33:44;10.68;;;8.18;;
45970;SDS011;31681;48.982;8.394;2023-06-26T03:36:10;10.50;;;7.80;;
45970;SDS011;31681;48.982;8.394;2023-06-26T03:38:35;12.45;;;7.47;;
45970;SDS011;31681;48.982;8.394;2023-06-26T03:41:01;11.88;;;7.80;;
45970;SDS011;31681;48.982;8.394;2023-06-26T03:43:27;10.23;;;7.05;;
45970;SDS011;31681;48.982;8.394;2023-06-26T03:46:15;8.88;;;7.25;;
45970;SDS011;31681;48.982;8.394;2023-06-26T03:48:40;8.45;;;6.90;;
45970;SDS011;31681;48.982;8.394;2023-06-26T03:51:06;9.85;;;7.40;;
45970;SDS011;31681;48.982;8.394;2023-06-26T03:53:32;10.63;;;6.90;;
45970;SDS011;31681;48.982;8.394;2023-06-26T03:55:58;9.68;;;7.32;;
45970;SDS011;31681;48.982;8.394;2023-06-26T03:58:23;9.77;;;6.80;;
45970;SDS011;31681;48.982;8.394;2023-06-26T04:00:50;9.85;;;7.57;;
45970;SDS011;31681;48.982;8.394;2023-06-26T04:03:16;10.55;;;7.72;;
45970;SDS011;31681;48.982;8.394;2023-06-26T04:05:41;11.23;;;8.20;;
45970;SDS011;31681;48.982;8.394;2023-06-26T04:08:07;8.88;;;7.25;;
45970;SDS011;31681;48.982;8.394;2023-06-26T04:10:32;10.98;;;7.18;;
45970;SDS011;31681;48.982;8.394;2023-06-26T04:12:58;11.90;;;7.72;;
45970;SDS011;31681;48.982;8.394;2023-06-26T04:15:23;13.13;;;7.53;;
45970;SDS011;31681;48.982;8.394;2023-06-26T04:17:48;10.95;;;7.45;;
45970;SDS011;31681;48.982;8.394;2023-06-26T04:20:13;10.95;;;7.75;;
45970;SDS011;31681;48.982;8.394;2023-06-26T04:22:39;9.77;;;7.72;;
45970;SDS011;31681;48.982;8.394;2023-06-26T04:25:05;11.52;;;8.30;;
45970;SDS011;31681;48.982;8.394;2023-06-26T04:27:30;10.75;;;7.75;;
45970;SDS011;31681;48.982;8.394;2023-06-26T04:29:56;11.70;;;8.23;;
45970;SDS011;31681;48.982;8.394;2023-06-26T04:32:21;11.82;;;7.38;;
45970;SDS011;31681;48.982;8.394;2023-06-26T04:34:47;13.73;;;7.95;;
45970;SDS011;31681;48.982;8.394;2023-06-26T04:37:13;12.77;;;7.63;;
45970;SDS011;31681;48.982;8.394;2023-06-26T04:39:41;12.80;;;8.20;;
45970;SDS011;31681;48.982;8.394;2023-06-26T04:42:07;10.55;;;7.78;;
45970;SDS011;31681;48.982;8.394;2023-06-26T04:44:32;9.63;;;7.35;;
45970;SDS011;31681;48.982;8.394;2023-06-26T04:46:58;10.90;;;7.78;;
45970;SDS011;31681;48.982;8.394;2023-06-26T04:49:23;11.88;;;7.35;;
45970;SDS011;31681;48.982;8.394;2023-06-26T04:51:49;14.23;;;7.68;;
45970;SDS011;31681;48.982;8.394;2023-06-26T04:54:16;9.40;;;7.03;;
45970;SDS011;31681;48.982;8.394;2023-06-26T04:56:41;10.93;;;7.20;;
45970;SDS011;31681;48.982;8.394;2023-06-26T04:59:06;9.15;;;6.95;;
45970;SDS011;31681;48.982;8.394;2023-06-26T05:01:32;10.20;;;7.22;;
45970;SDS011;31681;48.982;8.394;2023-06-26T05:06:49;9.90;;;7.30;;
45970;SDS011;31681;48.982;8.394;2023-06-26T05:09:14;12.68;;;7.00;;
45970;SDS011;31681;48.982;8.394;2023-06-26T05:11:40;8.85;;;6.60;;
45970;SDS011;31681;48.982;8.394;2023-06-26T05:14:05;8.60;;;7.18;;
45970;SDS011;31681;48.982;8.394;2023-06-26T05:16:32;10.88;;;7.53;;
45970;SDS011;31681;48.982;8.394;2023-06-26T05:18:58;10.13;;;6.82;;
45970;SDS011;31681;48.982;8.394;2023-06-26T05:21:23;10.35;;;7.43;;
45970;SDS011;31681;48.982;8.394;2023-06-26T05:23:48;10.25;;;7.30;;
45970;SDS011;31681;48.982;8.394;2023-06-26T05:26:14;9.77;;;6.97;;
45970;SDS011;31681;48.982;8.394;2023-06-26T05:28:42;11.48;;;7.68;;
45970;SDS011;31681;48.982;8.394;2023-06-26T05:31:09;8.43;;;7.45;;
45970;SDS011;31681;48.982;8.394;2023-06-26T05:33:35;12.20;;;7.50;;
45970;SDS011;31681;48.982;8.394;2023-06-26T05:36:00;9.95;;;7.45;;
45970;SDS011;31681;48.982;8.394;2023-06-26T05:38:27;11.55;;;8.13;;
45970;SDS011;31681;48.982;8.394;2023-06-26T05:40:53;10.70;;;7.93;;
45970;SDS011;31681;48.982;8.394;2023-06-26T05:43:20;9.18;;;7.45;;
45970;SDS011;31681;48.982;8.394;2023-06-26T05:45:46;9.68;;;7.63;;
45970;SDS011;31681;48.982;8.394;2023-06-26T05:48:12;8.45;;;6.97;;
45970;SDS011;31681;48.982;8.394;2023-06-26T05:50:37;9.90;;;7.22;;
45970;SDS011;31681;48.982;8.394;2023-06-26T05:53:03;9.15;;;7.22;;
45970;SDS011;31681;48.982;8.394;2023-06-26T05:55:28;10.98;;;7.82;;
45970;SDS011;31681;48.982;8.394;2023-06-26T05:57:54;8.73;;;7.13;;
45970;SDS011;31681;48.982;8.394;2023-06-26T06:00:20;9.93;;;7.13;;
45970;SDS011;31681;48.982;8.394;2023-06-26T06:02:45;10.10;;;7.25;;
45970;SDS011;31681;48.982;8.394;2023-06-26T06:05:11;9.93;;;7.55;;
45970;SDS011;31681;48.982;8.394;2023-06-26T06:07:36;10.35;;;7.60;;
45970;SDS011;31681;48.982;8.394;2023-06-26T06:10:03;9.20;;;6.43;;
45970;SDS011;31681;48.982;8.394;2023-06-26T06:12:28;8.68;;;7.18;;
45970;SDS011;31681;48.982;8.394;2023-06-26T06:14:55;8.82;;;6.50;;
45970;SDS011;31681;48.982;8.394;2023-06-26T06:17:20;8.98;;;6.78;;
45970;SDS011;31681;48.982;8.394;2023-06-26T06:19:46;8.93;;;6.38;;
45970;SDS011;31681;48.982;8.394;2023-06-26T06:22:11;9.35;;;6.78;;
45970;SDS011;31681;48.982;8.394;2023-06-26T06:24:36;8.23;;;6.45;;
45970;SDS011;31681;48.982;8.394;2023-06-26T06:27:02;11.60;;;7.05;;
45970;SDS011;31681;48.982;8.394;2023-06-26T06:29:27;10.20;;;7.18;;
45970;SDS011;31681;48.982;8.394;2023-06-26T06:31:52;8.30;;;6.80;;
45970;SDS011;31681;48.982;8.394;2023-06-26T06:34:18;8.63;;;6.72;;
45970;SDS011;31681;48.982;8.394;2023-06-26T06:36:43;9.63;;;7.13;;
45970;SDS011;31681;48.982;8.394;2023-06-26T06:39:08;9.95;;;5.88;;
45970;SDS011;31681;48.982;8.394;2023-06-26T06:41:34;8.85;;;6.40;;
45970;SDS011;31681;48.982;8.394;2023-06-26T06:44:02;10.07;;;6.53;;
45970;SDS011;31681;48.982;8.394;2023-06-26T06:46:28;9.38;;;6.38;;
45970;SDS011;31681;48.982;8.394;2023-06-26T06:48:53;7.70;;;6.50;;
45970;SDS011;31681;48.982;8.394;2023-06-26T06:51:19;9.45;;;6.45;;
45970;SDS011;31681;48.982;8.394;2023-06-26T06:53:44;6.53;;;5.82;;
45970;SDS011;31681;48.982;8.394;2023-06-26T06:56:09;9.23;;;6.45;;
45970;SDS011;31681;48.982;8.394;2023-06-26T06:58:35;8.85;;;6.55;;
45970;SDS011;31681;48.982;8.394;2023-06-26T07:01:01;9.23;;;6.15;;
45970;SDS011;31681;48.982;8.394;2023-06-26T07:03:29;10.27;;;5.97;;
45970;SDS011;31681;48.982;8.394;2023-06-26T07:05:55;7.30;;;5.80;;
45970;SDS011;31681;48.982;8.394;2023-06-26T07:08:20;7.38;;;6.10;;
45970;SDS011;31681;48.982;8.394;2023-06-26T07:10:46;6.60;;;5.68;;
45970;SDS011;31681;48.982;8.394;2023-06-26T07:13:11;6.88;;;6.18;;
45970;SDS011;31681;48.982;8.394;2023-06-26T07:15:37;7.93;;;6.53;;
45970;SDS011;31681;48.982;8.394;2023-06-26T07:18:02;7.97;;;6.30;;
45970;SDS011;31681;48.982;8.394;2023-06-26T07:20:27;8.77;;;6.50;;
45970;SDS011;31681;48.982;8.394;2023-06-26T07:22:53;8.00;;;6.45;;
45970;SDS011;31681;48.982;8.394;2023-06-26T07:25:18;10.23;;;6.10;;
45970;SDS011;31681;48.982;8.394;2023-06-26T07:27:43;7.10;;;6.03;;
45970;SDS011;31681;48.982;8.394;2023-06-26T07:30:10;7.70;;;5.80;;
45970;SDS011;31681;48.982;8.394;2023-06-26T07:32:35;8.23;;;5.93;;
45970;SDS011;31681;48.982;8.394;2023-06-26T07:35:01;7.68;;;5.85;;
45970;SDS011;31681;48.982;8.394;2023-06-26T07:37:26;8.25;;;6.00;;
45970;SDS011;31681;48.982;8.394;2023-06-26T07:39:51;7.82;;;6.45;;
45970;SDS011;31681;48.982;8.394;2023-06-26T07:42:17;6.03;;;5.22;;
45970;SDS011;31681;48.982;8.394;2023-06-26T07:44:42;6.85;;;5.30;;
45970;SDS011;31681;48.982;8.394;2023-06-26T07:47:08;6.45;;;5.13;;
45970;SDS011;31681;48.982;8.394;2023-06-26T07:49:34;7.22;;;5.82;;
45970;SDS011;31681;48.982;8.394;2023-06-26T07:51:59;6.75;;;4.85;;
45970;SDS011;31681;48.982;8.394;2023-06-26T07:54:24;7.50;;;5.22;;
45970;SDS011;31681;48.982;8.394;2023-06-26T07:56:57;7.75;;;5.75;;
45970;SDS011;31681;48.982;8.394;2023-06-26T07:59:23;7.95;;;5.75;;
45970;SDS011;31681;48.982;8.394;2023-06-26T08:01:50;6.40;;;5.38;;
45970;SDS011;31681;48.982;8.394;2023-06-26T08:04:18;7.57;;;5.57;;
45970;SDS011;31681;48.982;8.394;2023-06-26T08:06:44;6.60;;;5.30;;
45970;SDS011;31681;48.982;8.394;2023-06-26T08:09:09;7.53;;;6.35;;
45970;SDS011;31681;48.982;8.394;2023-06-26T08:11:35;8.27;;;5.43;;
45970;SDS011;31681;48.982;8.394;2023-06-26T08:14:00;7.60;;;5.68;;
45970;SDS011;31681;48.982;8.394;2023-06-26T08:16:26;7.65;;;5.65;;
45970;SDS011;31681;48.982;8.394;2023-06-26T08:18:51;6.30;;;5.47;;
45970;SDS011;31681;48.982;8.394;2023-06-26T08:21:16;7.05;;;5.57;;
45970;SDS011;31681;48.982;8.394;2023-06-26T08:23:42;7.35;;;5.68;;
45970;SDS011;31681;48.982;8.394;2023-06-26T08:26:07;7.03;;;6.32;;
45970;SDS011;31681;48.982;8.394;2023-06-26T08:28:32;7.00;;;5.93;;
45970;SDS011;31681;48.982;8.394;2023-06-26T08:30:58;8.20;;;6.22;;
45970;SDS011;31681;48.982;8.394;2023-06-26T08:33:24;6.97;;;6.03;;
45970;SDS011;31681;48.982;8.394;2023-06-26T08:35:50;7.55;;;6.18;;
45970;SDS011;31681;48.982;8.394;2023-06-26T08:38:15;11.10;;;6.10;;
45970;SDS011;31681;48.982;8.394;2023-06-26T08:40:40;9.20;;;6.60;;
45970;SDS011;31681;48.982;8.394;2023-06-26T08:43:06;7.97;;;6.43;;
45970;SDS011;31681;48.982;8.394;2023-06-26T08:45:31;7.63;;;6.20;;
45970;SDS011;31681;48.982;8.394;2023-06-26T08:47:57;8.60;;;6.38;;
45970;SDS011;31681;48.982;8.394;2023-06-26T08:50:24;7.20;;;6.20;;
45970;SDS011;31681;48.982;8.394;2023-06-26T08:52:53;7.10;;;6.07;;
45970;SDS011;31681;48.982;8.394;2023-06-26T08:55:19;6.80;;;6.07;;
45970;SDS011;31681;48.982;8.394;2023-06-26T08:57:47;8.02;;;6.30;;
45970;SDS011;31681;48.982;8.394;2023-06-26T09:00:12;9.82;;;6.18;;
45970;SDS011;31681;48.982;8.394;2023-06-26T09:02:40;8.02;;;6.22;;
45970;SDS011;31681;48.982;8.394;2023-06-26T09:05:05;6.65;;;6.05;;
45970;SDS011;31681;48.982;8.394;2023-06-26T09:07:31;6.47;;;5.45;;
45970;SDS011;31681;48.982;8.394;2023-06-26T09:09:56;8.73;;;5.53;;
45970;SDS011;31681;48.982;8.394;2023-06-26T09:12:21;8.52;;;5.82;;
45970;SDS011;31681;48.982;8.394;2023-06-26T09:14:47;7.13;;;6.25;;
45970;SDS011;31681;48.982;8.394;2023-06-26T09:17:13;6.88;;;5.85;;
45970;SDS011;31681;48.982;8.394;2023-06-26T09:19:38;8.20;;;5.95;;
45970;SDS011;31681;48.982;8.394;2023-06-26T09:22:04;6.53;;;5.68;;
45970;SDS011;31681;48.982;8.394;2023-06-26T09:24:30;6.43;;;5.78;;
45970;SDS011;31681;48.982;8.394;2023-06-26T09:26:55;9.45;;;5.70;;
45970;SDS011;31681;48.982;8.394;2023-06-26T09:29:21;8.70;;;6.10;;
45970;SDS011;31681;48.982;8.394;2023-06-26T09:31:46;8.95;;;6.18;;
45970;SDS011;31681;48.982;8.394;2023-06-26T09:34:11;9.20;;;6.28;;
45970;SDS011;31681;48.982;8.394;2023-06-26T09:36:37;6.78;;;5.90;;
45970;SDS011;31681;48.982;8.394;2023-06-26T09:39:03;6.40;;;5.68;;
45970;SDS011;31681;48.982;8.394;2023-06-26T09:41:29;8.82;;;5.65;;
45970;SDS011;31681;48.982;8.394;2023-06-26T09:43:57;7.47;;;5.90;;
45970;SDS011;31681;48.982;8.394;2023-06-26T09:46:26;7.20;;;6.10;;
45970;SDS011;31681;48.982;8.394;2023-06-26T09:49:07;7.57;;;6.00;;
45970;SDS011;31681;48.982;8.394;2023-06-26T09:51:34;7.63;;;5.60;;
45970;SDS011;31681;48.982;8.394;2023-06-26T09:54:00;9.18;;;6.50;;
45970;SDS011;31681;48.982;8.394;2023-06-26T09:56:26;6.80;;;6.10;;
45970;SDS011;31681;48.982;8.394;2023-06-26T09:58:52;8.40;;;5.80;;
45970;SDS011;31681;48.982;8.394;2023-06-26T10:01:19;8.27;;;5.97;;
45970;SDS011;31681;48.982;8.394;2023-06-26T10:03:45;7.32;;;5.40;;
45970;SDS011;31681;48.982;8.394;2023-06-26T10:06:10;10.52;;;6.22;;
45970;SDS011;31681;48.982;8.394;2023-06-26T10:08:37;8.75;;;6.40;;
45970;SDS011;31681;48.982;8.394;2023-06-26T10:11:02;7.00;;;6.30;;
45970;SDS011;31681;48.982;8.394;2023-06-26T10:13:30;6.65;;;5.95;;
45970;SDS011;31681;48.982;8.394;2023-06-26T10:15:56;7.13;;;5.95;;
45970;SDS011;31681;48.982;8.394;2023-06-26T10:18:23;7.60;;;6.55;;
45970;SDS011;31681;48.982;8.394;2023-06-26T10:20:49;8.40;;;5.68;;
45970;SDS011;31681;48.982;8.394;2023-06-26T10:23:15;9.00;;;6.47;;
45970;SDS011;31681;48.982;8.394;2023-06-26T10:25:42;6.88;;;5.85;;
45970;SDS011;31681;48.982;8.394;2023-06-26T10:28:09;7.40;;;6.15;;
45970;SDS011;31681;48.982;8.394;2023-06-26T10:30:36;7.57;;;5.90;;
45970;SDS011;31681;48.982;8.394;2023-06-26T10:33:02;7.63;;;5.85;;
45970;SDS011;31681;48.982;8.394;2023-06-26T10:35:28;6.75;;;5.80;;
45970;SDS011;31681;48.982;8.394;2023-06-26T10:37:59;7.43;;;5.90;;
45970;SDS011;31681;48.982;8.394;2023-06-26T10:40:25;8.20;;;5.75;;
45970;SDS011;31681;48.982;8.394;2023-06-26T10:42:51;8.20;;;5.70;;
45970;SDS011;31681;48.982;8.394;2023-06-26T10:45:32;6.47;;;5.72;;
45970;SDS011;31681;48.982;8.394;2023-06-26T10:47:58;8.77;;;5.70;;
45970;SDS011;31681;48.982;8.394;2023-06-26T10:50:24;8.80;;;6.00;;
45970;SDS011;31681;48.982;8.394;2023-06-26T10:55:34;9.23;;;5.90;;
45970;SDS011;31681;48.982;8.394;2023-06-26T10:58:00;7.90;;;5.93;;
45970;SDS011;31681;48.982;8.394;2023-06-26T11:00:27;7.45;;;5.53;;
45970;SDS011;31681;48.982;8.394;2023-06-26T11:02:52;6.00;;;5.32;;
45970;SDS011;31681;48.982;8.394;2023-06-26T11:05:25;7.10;;;5.32;;
45970;SDS011;31681;48.982;8.394;2023-06-26T11:08:08;7.47;;;5.35;;
45970;SDS011;31681;48.982;8.394;2023-06-26T11:13:28;5.93;;;5.30;;
45970;SDS011;31681;48.982;8.394;2023-06-26T11:15:54;6.35;;;5.53;;
45970;SDS011;31681;48.982;8.394;2023-06-26T11:18:21;8.38;;;5.68;;
45970;SDS011;31681;48.982;8.394;2023-06-26T11:20:47;7.57;;;5.63;;
45970;SDS011;31681;48.982;8.394;2023-06-26T11:23:13;7.07;;;5.63;;
45970;SDS011;31681;48.982;8.394;2023-06-26T11:25:38;6.80;;;5.00;;
45970;SDS011;31681;48.982;8.394;2023-06-26T11:28:04;8.02;;;5.45;;
45970;SDS011;31681;48.982;8.394;2023-06-26T11:30:30;6.65;;;5.20;;
45970;SDS011;31681;48.982;8.394;2023-06-26T11:33:02;6.63;;;4.90;;
45970;SDS011;31681;48.982;8.394;2023-06-26T11:35:28;5.97;;;4.95;;
45970;SDS011;31681;48.982;8.394;2023-06-26T11:37:56;6.95;;;5.35;;
45970;SDS011;31681;48.982;8.394;2023-06-26T11:40:22;6.10;;;4.82;;
45970;SDS011;31681;48.982;8.394;2023-06-26T11:42:52;9.13;;;4.75;;
45970;SDS011;31681;48.982;8.394;2023-06-26T11:45:17;6.25;;;5.13;;
45970;SDS011;31681;48.982;8.394;2023-06-26T11:47:44;6.20;;;4.80;;
45970;SDS011;31681;48.982;8.394;2023-06-26T11:50:14;7.43;;;5.43;;
45970;SDS011;31681;48.982;8.394;2023-06-26T11:52:41;8.63;;;5.18;;
45970;SDS011;31681;48.982;8.394;2023-06-26T11:55:06;7.13;;;4.85;;
45970;SDS011;31681;48.982;8.394;2023-06-26T11:57:32;7.68;;;4.97;;
45970;SDS011;31681;48.982;8.394;2023-06-26T11:59:57;5.40;;;4.15;;
45970;SDS011;31681;48.982;8.394;2023-06-26T12:02:23;6.10;;;4.60;;
45970;SDS011;31681;48.982;8.394;2023-06-26T12:04:48;6.95;;;4.38;;
45970;SDS011;31681;48.982;8.394;2023-06-26T12:07:14;5.28;;;4.75;;
45970;SDS011;31681;48.982;8.394;2023-06-26T12:09:44;8.10;;;4.70;;
45970;SDS011;31681;48.982;8.394;2023-06-26T12:12:11;6.68;;;3.97;;
45970;SDS011;31681;48.982;8.394;2023-06-26T12:14:36;5.75;;;3.97;;
45970;SDS011;31681;48.982;8.394;2023-06-26T12:17:04;5.53;;;4.30;;
45970;SDS011;31681;48.982;8.394;2023-06-26T12:19:29;4.50;;;3.83;;
45970;SDS011;31681;48.982;8.394;2023-06-26T12:21:55;4.88;;;3.38;;
45970;SDS011;31681;48.982;8.394;2023-06-26T12:24:22;4.78;;;3.55;;
45970;SDS011;31681;48.982;8.394;2023-06-26T12:26:49;3.50;;;3.20;;
45970;SDS011;31681;48.982;8.394;2023-06-26T12:29:15;6.00;;;3.58;;
45970;SDS011;31681;48.982;8.394;2023-06-26T12:31:52;6.30;;;3.28;;
45970;SDS011;31681;48.982;8.394;2023-06-26T12:34:21;3.70;;;3.10;;
45970;SDS011;31681;48.982;8.394;2023-06-26T12:36:49;5.35;;;3.10;;
45970;SDS011;31681;48.982;8.394;2023-06-26T12:39:16;5.28;;;3.35;;
45970;SDS011;31681;48.982;8.394;2023-06-26T12:41:55;7.28;;;3.45;;
45970;SDS011;31681;48.982;8.394;2023-06-26T12:44:27;4.53;;;3.15;;
45970;SDS011;31681;48.982;8.394;2023-06-26T12:46:54;4.82;;;3.50;;
45970;SDS011;31681;48.982;8.394;2023-06-26T12:49:19;4.70;;;3.42;;
45970;SDS011;31681;48.982;8.394;2023-06-26T12:51:45;4.78;;;3.00;;
45970;SDS011;31681;48.982;8.394;2023-06-26T12:54:10;7.93;;;2.78;;
45970;SDS011;31681;48.982;8.394;2023-06-26T12:56:36;3.53;;;3.00;;
45970;SDS011;31681;48.982;8.394;2023-06-26T12:59:01;4.15;;;3.13;;
45970;SDS011;31681;48.982;8.394;2023-06-26T13:01:27;4.82;;;2.90;;
45970;SDS011;31681;48.982;8.394;2023-06-26T13:03:53;4.50;;;3.65;;
45970;SDS011;31681;48.982;8.394;2023-06-26T13:06:18;5.10;;;3.60;;
45970;SDS011;31681;48.982;8.394;2023-06-26T13:08:44;4.78;;;2.92;;
45970;SDS011;31681;48.982;8.394;2023-06-26T13:11:09;6.78;;;3.63;;
45970;SDS011;31681;48.982;8.394;2023-06-26T13:13:35;5.43;;;3.67;;
45970;SDS011;31681;48.982;8.394;2023-06-26T13:16:00;7.30;;;4.30;;
45970;SDS011;31681;48.982;8.394;2023-06-26T13:18:27;6.68;;;3.60;;
45970;SDS011;31681;48.982;8.394;2023-06-26T13:20:52;5.75;;;3.55;;
45970;SDS011;31681;48.982;8.394;2023-06-26T13:23:17;6.15;;;3.97;;
45970;SDS011;31681;48.982;8.394;2023-06-26T13:25:44;4.95;;;3.35;;
45970;SDS011;31681;48.982;8.394;2023-06-26T13:28:09;5.35;;;3.42;;
45970;SDS011;31681;48.982;8.394;2023-06-26T13:30:35;4.95;;;3.90;;
45970;SDS011;31681;48.982;8.394;2023-06-26T13:33:00;7.43;;;3.67;;
45970;SDS011;31681;48.982;8.394;2023-06-26T13:35:25;5.32;;;3.97;;
45970;SDS011;31681;48.982;8.394;2023-06-26T13:37:51;7.93;;;4.72;;
45970;SDS011;31681;48.982;8.394;2023-06-26T13:40:16;6.40;;;3.85;;
45970;SDS011;31681;48.982;8.394;2023-06-26T13:42:42;6.35;;;5.03;;
45970;SDS011;31681;48.982;8.394;2023-06-26T13:45:09;5.15;;;4.53;;
45970;SDS011;31681;48.982;8.394;2023-06-26T13:47:34;5.97;;;4.97;;
45970;SDS011;31681;48.982;8.394;2023-06-26T13:49:59;8.20;;;4.68;;
45970;SDS011;31681;48.982;8.394;2023-06-26T13:52:25;8.63;;;5.45;;
45970;SDS011;31681;48.982;8.394;2023-06-26T13:54:50;7.97;;;5.57;;
45970;SDS011;31681;48.982;8.394;2023-06-26T13:57:16;8.52;;;5.15;;
45970;SDS011;31681;48.982;8.394;2023-06-26T13:59:42;8.00;;;5.38;;
45970;SDS011;31681;48.982;8.394;2023-06-26T14:02:07;8.73;;;5.78;;
45970;SDS011;31681;48.982;8.394;2023-06-26T14:04:33;8.93;;;5.70;;
45970;SDS011;31681;48.982;8.394;2023-06-26T14:06:58;8.57;;;5.60;;
45970;SDS011;31681;48.982;8.394;2023-06-26T14:09:24;13.93;;;6.88;;
45970;SDS011;31681;48.982;8.394;2023-06-26T14:11:49;9.25;;;5.75;;
45970;SDS011;31681;48.982;8.394;2023-06-26T14:14:14;7.90;;;5.85;;
45970;SDS011;31681;48.982;8.394;2023-06-26T14:16:40;7.22;;;5.47;;
45970;SDS011;31681;48.982;8.394;2023-06-26T14:19:05;6.88;;;5.38;;
45970;SDS011;31681;48.982;8.394;2023-06-26T14:21:31;11.23;;;5.30;;
45970;SDS011;31681;48.982;8.394;2023-06-26T14:23:58;7.20;;;5.30;;
45970;SDS011;31681;48.982;8.394;2023-06-26T14:26:23;9.15;;;4.95;;
45970;SDS011;31681;48.982;8.394;2023-06-26T14:28:49;8.68;;;5.13;;
45970;SDS011;31681;48.982;8.394;2023-06-26T14:31:14;6.82;;;5.05;;
45970;SDS011;31681;48.982;8.394;2023-06-26T14:33:39;9.57;;;5.18;;
45970;SDS011;31681;48.982;8.394;2023-06-26T14:36:05;8.55;;;5.70;;
45970;SDS011;31681;48.982;8.394;2023-06-26T14:38:30;7.10;;;5.32;;
45970;SDS011;31681;48.982;8.394;2023-06-26T14:40:55;8.30;;;5.30;;
45970;SDS011;31681;48.982;8.394;2023-06-26T14:43:21;9.43;;;5.65;;
45970;SDS011;31681;48.982;8.394;2023-06-26T14:45:46;11.77;;;5.10;;
45970;SDS011;31681;48.982;8.394;2023-06-26T14:48:12;7.50;;;4.95;;
45970;SDS011;31681;48.982;8.394;2023-06-26T14:50:37;7.82;;;4.63;;
45970;SDS011;31681;48.982;8.394;2023-06-26T14:53:03;6.63;;;4.07;;